sensor_id;sensor_type;location;lat;lon;timestamp;temperature;humidity
82788;DHT22;72529;51.786;4.662;2023-12-14T00:00:36;8.16;83.99
82788;DHT22;72529;51.786;4.662;2023-12-14T00:03:02;8.16;83.83
82788;DHT22;72529;51.786;4.662;2023-12-14T00:05:27;8.28;83.98
82788;DHT22;72529;51.786;4.662;2023-12-14T00:07:53;8.25;83.54
82788;DHT22;72529;51.786;4.662;2023-12-14T00:10:18;8.15;83.67
82788;DHT22;72529;51.786;4.662;2023-12-14T00:12:44;8.16;83.59
82788;DHT22;72529;51.786;4.662;2023-12-14T00:15:10;8.16;83.52
82788;DHT22;72529;51.786;4.662;2023-12-14T00:17:36;8.15;83.57
82788;DHT22;72529;51.786;4.662;2023-12-14T00:20:01;8.21;82.96
82788;DHT22;72529;51.786;4.662;2023-12-14T00:22:27;8.06;83.01
82788;DHT22;72529;51.786;4.662;2023-12-14T00:24:53;8.02;83.28
82788;DHT22;72529;51.786;4.662;2023-12-14T00:27:18;7.98;83.25
82788;DHT22;72529;51.786;4.662;2023-12-14T00:29:44;8.01;83.41
82788;DHT22;72529;51.786;4.662;2023-12-14T00:32:09;7.99;83.47
82788;DHT22;72529;51.786;4.662;2023-12-14T00:34:34;8.01;83.15
82788;DHT22;72529;51.786;4.662;2023-12-14T00:37:00;7.98;82.94
82788;DHT22;72529;51.786;4.662;2023-12-14T00:39:26;7.94;82.99
82788;DHT22;72529;51.786;4.662;2023-12-14T00:41:51;7.90;83.06
82788;DHT22;72529;51.786;4.662;2023-12-14T00:44:17;7.99;82.86
82788;DHT22;72529;51.786;4.662;2023-12-14T00:46:42;7.94;82.39
82788;DHT22;72529;51.786;4.662;2023-12-14T00:49:07;7.92;82.57
82788;DHT22;72529;51.786;4.662;2023-12-14T00:51:33;8.04;81.91
82788;DHT22;72529;51.786;4.662;2023-12-14T00:53:58;8.02;82.31
82788;DHT22;72529;51.786;4.662;2023-12-14T00:56:24;7.95;81.75
82788;DHT22;72529;51.786;4.662;2023-12-14T00:58:49;8.05;81.89
82788;DHT22;72529;51.786;4.662;2023-12-14T01:01:15;8.05;81.68
82788;DHT22;72529;51.786;4.662;2023-12-14T01:03:40;7.99;81.46
82788;DHT22;72529;51.786;4.662;2023-12-14T01:06:06;8.02;81.37
82788;DHT22;72529;51.786;4.662;2023-12-14T01:08:32;8.01;81.37
82788;DHT22;72529;51.786;4.662;2023-12-14T01:10:57;7.98;81.05
82788;DHT22;72529;51.786;4.662;2023-12-14T01:13:23;7.95;81.41
82788;DHT22;72529;51.786;4.662;2023-12-14T01:15:48;8.11;81.20
82788;DHT22;72529;51.786;4.662;2023-12-14T01:18:14;7.98;80.85
82788;DHT22;72529;51.786;4.662;2023-12-14T01:20:39;8.01;81.14
82788;DHT22;72529;51.786;4.662;2023-12-14T01:23:04;7.88;81.07
82788;DHT22;72529;51.786;4.662;2023-12-14T01:25:30;7.94;81.37
82788;DHT22;72529;51.786;4.662;2023-12-14T01:27:55;7.91;81.29
82788;DHT22;72529;51.786;4.662;2023-12-14T01:30:21;7.92;81.34
82788;DHT22;72529;51.786;4.662;2023-12-14T01:32:46;7.95;81.43
82788;DHT22;72529;51.786;4.662;2023-12-14T01:35:12;7.84;81.26
82788;DHT22;72529;51.786;4.662;2023-12-14T01:37:38;7.82;81.10
82788;DHT22;72529;51.786;4.662;2023-12-14T01:40:03;7.82;81.33
82788;DHT22;72529;51.786;4.662;2023-12-14T01:42:30;7.70;81.62
82788;DHT22;72529;51.786;4.662;2023-12-14T01:44:55;7.77;81.75
82788;DHT22;72529;51.786;4.662;2023-12-14T01:47:20;7.77;81.48
82788;DHT22;72529;51.786;4.662;2023-12-14T01:49:46;7.75;81.70
82788;DHT22;72529;51.786;4.662;2023-12-14T01:52:11;7.73;81.37
82788;DHT22;72529;51.786;4.662;2023-12-14T01:54:37;7.73;81.52
82788;DHT22;72529;51.786;4.662;2023-12-14T01:57:02;7.81;80.94
82788;DHT22;72529;51.786;4.662;2023-12-14T01:59:28;7.77;81.11
82788;DHT22;72529;51.786;4.662;2023-12-14T02:01:56;7.88;81.16
82788;DHT22;72529;51.786;4.662;2023-12-14T02:04:24;7.91;80.56
82788;DHT22;72529;51.786;4.662;2023-12-14T02:06:50;7.88;80.93
82788;DHT22;72529;51.786;4.662;2023-12-14T02:09:15;7.98;80.43
82788;DHT22;72529;51.786;4.662;2023-12-14T02:11:41;8.06;80.67
82788;DHT22;72529;51.786;4.662;2023-12-14T02:14:09;8.05;80.24
82788;DHT22;72529;51.786;4.662;2023-12-14T02:16:34;7.98;80.14
82788;DHT22;72529;51.786;4.662;2023-12-14T02:19:00;8.02;80.35
82788;DHT22;72529;51.786;4.662;2023-12-14T02:21:25;8.08;80.32
82788;DHT22;72529;51.786;4.662;2023-12-14T02:23:51;8.01;80.42
82788;DHT22;72529;51.786;4.662;2023-12-14T02:26:16;7.98;79.94
82788;DHT22;72529;51.786;4.662;2023-12-14T02:28:42;7.99;80.09
82788;DHT22;72529;51.786;4.662;2023-12-14T02:31:07;8.02;79.78
82788;DHT22;72529;51.786;4.662;2023-12-14T02:33:33;8.02;80.02
82788;DHT22;72529;51.786;4.662;2023-12-14T02:35:59;7.99;79.92
82788;DHT22;72529;51.786;4.662;2023-12-14T02:38:24;8.06;80.29
82788;DHT22;72529;51.786;4.662;2023-12-14T02:40:50;8.09;79.96
82788;DHT22;72529;51.786;4.662;2023-12-14T02:43:16;8.05;79.35
82788;DHT22;72529;51.786;4.662;2023-12-14T02:45:41;8.06;80.41
82788;DHT22;72529;51.786;4.662;2023-12-14T02:48:07;8.04;79.87
82788;DHT22;72529;51.786;4.662;2023-12-14T02:50:32;8.15;79.62
82788;DHT22;72529;51.786;4.662;2023-12-14T02:52:58;8.05;79.78
82788;DHT22;72529;51.786;4.662;2023-12-14T02:55:23;8.04;80.34
82788;DHT22;72529;51.786;4.662;2023-12-14T02:57:49;7.99;80.05
82788;DHT22;72529;51.786;4.662;2023-12-14T03:00:14;7.99;80.48
82788;DHT22;72529;51.786;4.662;2023-12-14T03:02:40;7.95;80.46
82788;DHT22;72529;51.786;4.662;2023-12-14T03:05:05;7.92;80.79
82788;DHT22;72529;51.786;4.662;2023-12-14T03:07:31;7.99;80.71
82788;DHT22;72529;51.786;4.662;2023-12-14T03:09:56;7.97;80.48
82788;DHT22;72529;51.786;4.662;2023-12-14T03:12:22;7.97;80.58
82788;DHT22;72529;51.786;4.662;2023-12-14T03:14:47;7.99;80.50
82788;DHT22;72529;51.786;4.662;2023-12-14T03:17:13;7.99;80.32
82788;DHT22;72529;51.786;4.662;2023-12-14T03:19:41;8.02;80.28
82788;DHT22;72529;51.786;4.662;2023-12-14T03:22:07;7.99;80.22
82788;DHT22;72529;51.786;4.662;2023-12-14T03:24:32;8.02;80.36
82788;DHT22;72529;51.786;4.662;2023-12-14T03:26:58;8.04;80.09
82788;DHT22;72529;51.786;4.662;2023-12-14T03:29:23;8.12;79.83
82788;DHT22;72529;51.786;4.662;2023-12-14T03:31:49;8.12;79.88
82788;DHT22;72529;51.786;4.662;2023-12-14T03:34:14;8.15;79.70
82788;DHT22;72529;51.786;4.662;2023-12-14T03:36:39;8.06;80.07
82788;DHT22;72529;51.786;4.662;2023-12-14T03:39:05;8.12;79.60
82788;DHT22;72529;51.786;4.662;2023-12-14T03:41:31;8.06;79.76
82788;DHT22;72529;51.786;4.662;2023-12-14T03:43:57;8.08;79.75
82788;DHT22;72529;51.786;4.662;2023-12-14T03:46:23;8.08;79.87
82788;DHT22;72529;51.786;4.662;2023-12-14T03:48:49;7.95;80.08
82788;DHT22;72529;51.786;4.662;2023-12-14T03:51:20;7.95;80.50
82788;DHT22;72529;51.786;4.662;2023-12-14T03:53:45;7.99;80.15
82788;DHT22;72529;51.786;4.662;2023-12-14T03:56:11;8.11;80.18
82788;DHT22;72529;51.786;4.662;2023-12-14T03:58:36;8.05;80.10
82788;DHT22;72529;51.786;4.662;2023-12-14T04:01:02;8.05;80.08
82788;DHT22;72529;51.786;4.662;2023-12-14T04:03:27;8.02;79.79
82788;DHT22;72529;51.786;4.662;2023-12-14T04:05:53;7.95;80.14
82788;DHT22;72529;51.786;4.662;2023-12-14T04:08:18;7.92;80.19
82788;DHT22;72529;51.786;4.662;2023-12-14T04:10:44;7.95;80.47
82788;DHT22;72529;51.786;4.662;2023-12-14T04:13:09;8.05;80.59
82788;DHT22;72529;51.786;4.662;2023-12-14T04:15:34;8.14;80.06
82788;DHT22;72529;51.786;4.662;2023-12-14T04:18:00;8.11;80.21
82788;DHT22;72529;51.786;4.662;2023-12-14T04:20:25;8.20;79.96
82788;DHT22;72529;51.786;4.662;2023-12-14T04:22:51;8.14;79.80
82788;DHT22;72529;51.786;4.662;2023-12-14T04:25:16;8.18;79.55
82788;DHT22;72529;51.786;4.662;2023-12-14T04:27:42;8.09;79.64
82788;DHT22;72529;51.786;4.662;2023-12-14T04:30:07;8.05;79.80
82788;DHT22;72529;51.786;4.662;2023-12-14T04:32:36;8.16;79.81
82788;DHT22;72529;51.786;4.662;2023-12-14T04:35:02;8.12;79.59
82788;DHT22;72529;51.786;4.662;2023-12-14T04:37:27;7.98;79.79
82788;DHT22;72529;51.786;4.662;2023-12-14T04:39:53;7.94;79.74
82788;DHT22;72529;51.786;4.662;2023-12-14T04:42:18;7.90;80.23
82788;DHT22;72529;51.786;4.662;2023-12-14T04:44:44;7.88;80.44
82788;DHT22;72529;51.786;4.662;2023-12-14T04:47:09;7.99;79.85
82788;DHT22;72529;51.786;4.662;2023-12-14T04:49:35;7.94;79.91
82788;DHT22;72529;51.786;4.662;2023-12-14T04:52:00;7.94;79.91
82788;DHT22;72529;51.786;4.662;2023-12-14T04:54:25;8.01;79.81
82788;DHT22;72529;51.786;4.662;2023-12-14T04:56:51;7.92;79.57
82788;DHT22;72529;51.786;4.662;2023-12-14T04:59:17;7.90;79.25
82788;DHT22;72529;51.786;4.662;2023-12-14T05:01:42;7.91;79.39
82788;DHT22;72529;51.786;4.662;2023-12-14T05:04:07;7.99;78.96
82788;DHT22;72529;51.786;4.662;2023-12-14T05:06:33;7.88;79.23
82788;DHT22;72529;51.786;4.662;2023-12-14T05:09:00;7.94;78.98
82788;DHT22;72529;51.786;4.662;2023-12-14T05:11:29;8.15;77.85
82788;DHT22;72529;51.786;4.662;2023-12-14T05:13:54;7.95;77.58
82788;DHT22;72529;51.786;4.662;2023-12-14T05:16:19;7.98;78.40
82788;DHT22;72529;51.786;4.662;2023-12-14T05:18:45;7.90;77.94
82788;DHT22;72529;51.786;4.662;2023-12-14T05:21:16;7.87;78.27
82788;DHT22;72529;51.786;4.662;2023-12-14T05:23:42;7.90;77.74
82788;DHT22;72529;51.786;4.662;2023-12-14T05:26:07;7.80;78.08
82788;DHT22;72529;51.786;4.662;2023-12-14T05:28:32;7.84;78.08
82788;DHT22;72529;51.786;4.662;2023-12-14T05:30:58;7.84;77.98
82788;DHT22;72529;51.786;4.662;2023-12-14T05:33:23;7.78;77.92
82788;DHT22;72529;51.786;4.662;2023-12-14T05:35:49;7.97;78.38
82788;DHT22;72529;51.786;4.662;2023-12-14T05:38:14;7.90;77.98
82788;DHT22;72529;51.786;4.662;2023-12-14T05:40:39;7.88;77.41
82788;DHT22;72529;51.786;4.662;2023-12-14T05:43:05;7.90;77.61
82788;DHT22;72529;51.786;4.662;2023-12-14T05:45:30;8.02;77.17
82788;DHT22;72529;51.786;4.662;2023-12-14T05:47:56;7.95;77.72
82788;DHT22;72529;51.786;4.662;2023-12-14T05:50:21;7.94;77.40
82788;DHT22;72529;51.786;4.662;2023-12-14T05:52:47;7.92;77.34
82788;DHT22;72529;51.786;4.662;2023-12-14T05:55:13;7.91;77.57
82788;DHT22;72529;51.786;4.662;2023-12-14T05:57:38;7.92;77.39
82788;DHT22;72529;51.786;4.662;2023-12-14T06:00:05;7.95;77.54
82788;DHT22;72529;51.786;4.662;2023-12-14T06:02:31;7.97;77.65
82788;DHT22;72529;51.786;4.662;2023-12-14T06:04:57;7.87;77.49
82788;DHT22;72529;51.786;4.662;2023-12-14T06:07:23;7.87;77.09
82788;DHT22;72529;51.786;4.662;2023-12-14T06:09:49;7.98;77.50
82788;DHT22;72529;51.786;4.662;2023-12-14T06:12:14;7.94;76.60
82788;DHT22;72529;51.786;4.662;2023-12-14T06:14:39;7.90;77.13
82788;DHT22;72529;51.786;4.662;2023-12-14T06:17:05;7.98;77.13
82788;DHT22;72529;51.786;4.662;2023-12-14T06:19:30;7.87;76.47
82788;DHT22;72529;51.786;4.662;2023-12-14T06:21:56;7.81;76.53
82788;DHT22;72529;51.786;4.662;2023-12-14T06:24:21;7.71;76.66
82788;DHT22;72529;51.786;4.662;2023-12-14T06:26:47;7.80;76.01
82788;DHT22;72529;51.786;4.662;2023-12-14T06:29:13;7.78;76.56
82788;DHT22;72529;51.786;4.662;2023-12-14T06:31:39;7.71;75.92
82788;DHT22;72529;51.786;4.662;2023-12-14T06:34:05;7.70;76.07
82788;DHT22;72529;51.786;4.662;2023-12-14T06:36:31;7.67;75.94
82788;DHT22;72529;51.786;4.662;2023-12-14T06:39:00;7.59;75.96
82788;DHT22;72529;51.786;4.662;2023-12-14T06:41:27;7.67;76.27
82788;DHT22;72529;51.786;4.662;2023-12-14T06:43:54;7.69;76.69
82788;DHT22;72529;51.786;4.662;2023-12-14T06:46:20;7.69;75.80
82788;DHT22;72529;51.786;4.662;2023-12-14T06:48:46;7.56;75.27
82788;DHT22;72529;51.786;4.662;2023-12-14T06:51:12;7.51;75.28
82788;DHT22;72529;51.786;4.662;2023-12-14T06:53:42;7.49;75.32
82788;DHT22;72529;51.786;4.662;2023-12-14T06:56:08;7.50;75.26
82788;DHT22;72529;51.786;4.662;2023-12-14T06:58:39;7.53;75.58
82788;DHT22;72529;51.786;4.662;2023-12-14T07:01:05;7.54;75.54
82788;DHT22;72529;51.786;4.662;2023-12-14T07:03:31;7.47;74.91
82788;DHT22;72529;51.786;4.662;2023-12-14T07:05:57;7.40;74.75
82788;DHT22;72529;51.786;4.662;2023-12-14T07:08:22;7.40;75.32
82788;DHT22;72529;51.786;4.662;2023-12-14T07:10:48;7.47;75.54
82788;DHT22;72529;51.786;4.662;2023-12-14T07:13:14;7.49;76.06
82788;DHT22;72529;51.786;4.662;2023-12-14T07:15:39;7.40;75.42
82788;DHT22;72529;51.786;4.662;2023-12-14T07:18:05;7.39;75.55
82788;DHT22;72529;51.786;4.662;2023-12-14T07:20:30;7.36;75.84
82788;DHT22;72529;51.786;4.662;2023-12-14T07:22:55;7.33;75.71
82788;DHT22;72529;51.786;4.662;2023-12-14T07:25:21;7.40;76.28
82788;DHT22;72529;51.786;4.662;2023-12-14T07:27:46;7.33;75.79
82788;DHT22;72529;51.786;4.662;2023-12-14T07:30:12;7.43;76.19
82788;DHT22;72529;51.786;4.662;2023-12-14T07:32:38;7.33;75.50
82788;DHT22;72529;51.786;4.662;2023-12-14T07:35:04;7.36;76.07
82788;DHT22;72529;51.786;4.662;2023-12-14T07:37:29;7.44;76.45
82788;DHT22;72529;51.786;4.662;2023-12-14T07:39:55;7.44;76.22
82788;DHT22;72529;51.786;4.662;2023-12-14T07:42:20;7.47;76.58
82788;DHT22;72529;51.786;4.662;2023-12-14T07:44:46;7.31;75.82
82788;DHT22;72529;51.786;4.662;2023-12-14T07:47:11;7.43;76.68
82788;DHT22;72529;51.786;4.662;2023-12-14T07:49:37;7.34;76.23
82788;DHT22;72529;51.786;4.662;2023-12-14T07:52:03;7.43;76.11
82788;DHT22;72529;51.786;4.662;2023-12-14T07:54:28;7.40;76.48
82788;DHT22;72529;51.786;4.662;2023-12-14T07:56:54;7.36;76.34
82788;DHT22;72529;51.786;4.662;2023-12-14T07:59:20;7.39;77.31
82788;DHT22;72529;51.786;4.662;2023-12-14T08:01:46;7.42;76.94
82788;DHT22;72529;51.786;4.662;2023-12-14T08:04:11;7.44;76.68
82788;DHT22;72529;51.786;4.662;2023-12-14T08:06:37;7.46;75.97
82788;DHT22;72529;51.786;4.662;2023-12-14T08:09:04;7.30;75.93
82788;DHT22;72529;51.786;4.662;2023-12-14T08:11:33;7.27;76.18
82788;DHT22;72529;51.786;4.662;2023-12-14T08:13:59;7.27;76.95
82788;DHT22;72529;51.786;4.662;2023-12-14T08:16:24;7.24;76.38
82788;DHT22;72529;51.786;4.662;2023-12-14T08:18:50;7.26;76.18
82788;DHT22;72529;51.786;4.662;2023-12-14T08:21:17;7.29;76.81
82788;DHT22;72529;51.786;4.662;2023-12-14T08:23:43;7.24;76.44
82788;DHT22;72529;51.786;4.662;2023-12-14T08:26:08;7.23;76.14
82788;DHT22;72529;51.786;4.662;2023-12-14T08:28:35;7.31;76.55
82788;DHT22;72529;51.786;4.662;2023-12-14T08:31:01;7.27;76.32
82788;DHT22;72529;51.786;4.662;2023-12-14T08:33:30;7.27;76.71
82788;DHT22;72529;51.786;4.662;2023-12-14T08:35:56;7.33;76.43
82788;DHT22;72529;51.786;4.662;2023-12-14T08:38:22;7.33;76.62
82788;DHT22;72529;51.786;4.662;2023-12-14T08:40:48;7.36;76.52
82788;DHT22;72529;51.786;4.662;2023-12-14T08:43:14;7.37;76.56
82788;DHT22;72529;51.786;4.662;2023-12-14T08:45:39;7.44;76.84
82788;DHT22;72529;51.786;4.662;2023-12-14T08:48:05;7.44;76.47
82788;DHT22;72529;51.786;4.662;2023-12-14T08:50:30;7.40;75.41
82788;DHT22;72529;51.786;4.662;2023-12-14T08:52:56;7.40;75.80
82788;DHT22;72529;51.786;4.662;2023-12-14T08:55:24;7.51;76.22
82788;DHT22;72529;51.786;4.662;2023-12-14T08:57:50;7.51;75.75
82788;DHT22;72529;51.786;4.662;2023-12-14T09:00:16;7.56;75.95
82788;DHT22;72529;51.786;4.662;2023-12-14T09:02:43;7.67;75.66
82788;DHT22;72529;51.786;4.662;2023-12-14T09:05:09;7.71;76.06
82788;DHT22;72529;51.786;4.662;2023-12-14T09:07:34;7.75;75.29
82788;DHT22;72529;51.786;4.662;2023-12-14T09:10:00;7.80;74.67
82788;DHT22;72529;51.786;4.662;2023-12-14T09:12:25;7.74;75.23
82788;DHT22;72529;51.786;4.662;2023-12-14T09:14:51;7.80;74.90
82788;DHT22;72529;51.786;4.662;2023-12-14T09:17:16;7.87;74.67
82788;DHT22;72529;51.786;4.662;2023-12-14T09:19:41;7.80;74.69
82788;DHT22;72529;51.786;4.662;2023-12-14T09:22:07;7.80;75.24
82788;DHT22;72529;51.786;4.662;2023-12-14T09:24:32;7.91;75.27
82788;DHT22;72529;51.786;4.662;2023-12-14T09:26:58;7.80;75.39
82788;DHT22;72529;51.786;4.662;2023-12-14T09:29:23;7.95;74.98
82788;DHT22;72529;51.786;4.662;2023-12-14T09:31:48;7.99;75.10
82788;DHT22;72529;51.786;4.662;2023-12-14T09:34:15;8.02;74.87
82788;DHT22;72529;51.786;4.662;2023-12-14T09:36:40;8.06;74.49
82788;DHT22;72529;51.786;4.662;2023-12-14T09:39:07;8.08;74.08
82788;DHT22;72529;51.786;4.662;2023-12-14T09:41:37;7.95;74.31
82788;DHT22;72529;51.786;4.662;2023-12-14T09:44:04;7.91;74.15
82788;DHT22;72529;51.786;4.662;2023-12-14T09:46:33;7.95;74.42
82788;DHT22;72529;51.786;4.662;2023-12-14T09:49:01;7.95;74.07
82788;DHT22;72529;51.786;4.662;2023-12-14T09:51:27;7.81;74.92
82788;DHT22;72529;51.786;4.662;2023-12-14T09:53:53;7.74;74.88
82788;DHT22;72529;51.786;4.662;2023-12-14T09:56:27;7.70;74.72
82788;DHT22;72529;51.786;4.662;2023-12-14T09:58:53;7.73;74.68
82788;DHT22;72529;51.786;4.662;2023-12-14T10:01:26;7.67;74.98
82788;DHT22;72529;51.786;4.662;2023-12-14T10:06:33;7.46;75.05
82788;DHT22;72529;51.786;4.662;2023-12-14T10:08:59;7.47;74.78
82788;DHT22;72529;51.786;4.662;2023-12-14T10:11:24;7.47;74.52
82788;DHT22;72529;51.786;4.662;2023-12-14T10:13:50;7.50;74.57
82788;DHT22;72529;51.786;4.662;2023-12-14T10:16:28;7.46;74.85
82788;DHT22;72529;51.786;4.662;2023-12-14T10:18:56;7.56;74.78
82788;DHT22;72529;51.786;4.662;2023-12-14T10:21:23;7.67;74.93
82788;DHT22;72529;51.786;4.662;2023-12-14T10:23:49;7.70;73.78
82788;DHT22;72529;51.786;4.662;2023-12-14T10:26:15;7.61;73.95
82788;DHT22;72529;51.786;4.662;2023-12-14T10:28:40;7.63;74.50
82788;DHT22;72529;51.786;4.662;2023-12-14T10:31:06;7.80;75.67
82788;DHT22;72529;51.786;4.662;2023-12-14T10:33:32;7.78;74.00
82788;DHT22;72529;51.786;4.662;2023-12-14T10:35:58;7.78;74.21
82788;DHT22;72529;51.786;4.662;2023-12-14T10:38:24;7.73;74.46
82788;DHT22;72529;51.786;4.662;2023-12-14T10:40:52;7.70;74.26
82788;DHT22;72529;51.786;4.662;2023-12-14T10:43:19;7.87;74.48
82788;DHT22;72529;51.786;4.662;2023-12-14T10:45:46;8.05;74.39
82788;DHT22;72529;51.786;4.662;2023-12-14T10:48:13;8.11;72.16
82788;DHT22;72529;51.786;4.662;2023-12-14T10:50:42;8.09;73.05
82788;DHT22;72529;51.786;4.662;2023-12-14T10:53:08;7.98;72.24
82788;DHT22;72529;51.786;4.662;2023-12-14T10:55:43;7.91;74.30
82788;DHT22;72529;51.786;4.662;2023-12-14T10:58:10;8.01;74.14
82788;DHT22;72529;51.786;4.662;2023-12-14T11:00:37;8.08;72.60
82788;DHT22;72529;51.786;4.662;2023-12-14T11:03:06;8.06;72.71
82788;DHT22;72529;51.786;4.662;2023-12-14T11:05:33;8.29;73.21
82788;DHT22;72529;51.786;4.662;2023-12-14T11:08:06;8.36;73.69
82788;DHT22;72529;51.786;4.662;2023-12-14T11:10:42;8.34;72.45
82788;DHT22;72529;51.786;4.662;2023-12-14T11:13:13;8.36;72.92
82788;DHT22;72529;51.786;4.662;2023-12-14T11:15:45;8.36;73.04
82788;DHT22;72529;51.786;4.662;2023-12-14T11:23:33;8.25;72.44
82788;DHT22;72529;51.786;4.662;2023-12-14T11:26:03;8.26;72.92
82788;DHT22;72529;51.786;4.662;2023-12-14T11:28:40;8.36;73.64
82788;DHT22;72529;51.786;4.662;2023-12-14T11:31:12;8.42;72.60
82788;DHT22;72529;51.786;4.662;2023-12-14T11:33:37;8.55;72.57
82788;DHT22;72529;51.786;4.662;2023-12-14T11:36:03;8.66;72.63
82788;DHT22;72529;51.786;4.662;2023-12-14T11:38:29;8.75;73.21
82788;DHT22;72529;51.786;4.662;2023-12-14T11:40:55;8.76;72.59
82788;DHT22;72529;51.786;4.662;2023-12-14T11:43:21;8.76;72.00
82788;DHT22;72529;51.786;4.662;2023-12-14T11:45:47;8.77;72.42
82788;DHT22;72529;51.786;4.662;2023-12-14T11:48:13;8.76;72.33
82788;DHT22;72529;51.786;4.662;2023-12-14T11:50:40;8.75;72.51
82788;DHT22;72529;51.786;4.662;2023-12-14T11:53:07;8.59;73.14
82788;DHT22;72529;51.786;4.662;2023-12-14T11:55:35;8.50;74.39
82788;DHT22;72529;51.786;4.662;2023-12-14T11:58:01;8.49;74.58
82788;DHT22;72529;51.786;4.662;2023-12-14T12:00:29;8.38;75.21
82788;DHT22;72529;51.786;4.662;2023-12-14T12:03:17;8.34;75.42
82788;DHT22;72529;51.786;4.662;2023-12-14T12:05:51;8.28;75.63
82788;DHT22;72529;51.786;4.662;2023-12-14T12:08:21;8.16;75.19
82788;DHT22;72529;51.786;4.662;2023-12-14T12:10:47;8.09;75.84
82788;DHT22;72529;51.786;4.662;2023-12-14T12:13:18;8.16;76.83
82788;DHT22;72529;51.786;4.662;2023-12-14T12:15:44;8.25;76.43
82788;DHT22;72529;51.786;4.662;2023-12-14T12:18:12;8.26;76.60
82788;DHT22;72529;51.786;4.662;2023-12-14T12:20:38;8.28;75.64
82788;DHT22;72529;51.786;4.662;2023-12-14T12:23:04;8.29;75.99
82788;DHT22;72529;51.786;4.662;2023-12-14T12:25:31;8.25;76.18
82788;DHT22;72529;51.786;4.662;2023-12-14T12:27:58;8.25;75.79
82788;DHT22;72529;51.786;4.662;2023-12-14T12:30:24;8.36;76.10
82788;DHT22;72529;51.786;4.662;2023-12-14T12:32:50;8.49;76.76
82788;DHT22;72529;51.786;4.662;2023-12-14T12:35:22;8.44;75.85
82788;DHT22;72529;51.786;4.662;2023-12-14T12:37:48;8.48;75.88
82788;DHT22;72529;51.786;4.662;2023-12-14T12:40:19;8.50;76.17
82788;DHT22;72529;51.786;4.662;2023-12-14T12:42:45;8.52;76.15
82788;DHT22;72529;51.786;4.662;2023-12-14T12:45:14;8.60;75.97
82788;DHT22;72529;51.786;4.662;2023-12-14T12:47:40;8.57;75.12
82788;DHT22;72529;51.786;4.662;2023-12-14T12:50:06;8.45;75.16
82788;DHT22;72529;51.786;4.662;2023-12-14T12:52:31;8.46;75.50
82788;DHT22;72529;51.786;4.662;2023-12-14T12:54:57;8.46;75.86
82788;DHT22;72529;51.786;4.662;2023-12-14T12:57:23;8.59;75.70
82788;DHT22;72529;51.786;4.662;2023-12-14T12:59:48;8.66;74.83
82788;DHT22;72529;51.786;4.662;2023-12-14T13:02:14;8.59;74.81
82788;DHT22;72529;51.786;4.662;2023-12-14T13:04:39;8.42;75.51
82788;DHT22;72529;51.786;4.662;2023-12-14T13:07:04;8.35;75.99
82788;DHT22;72529;51.786;4.662;2023-12-14T13:09:30;8.38;76.13
82788;DHT22;72529;51.786;4.662;2023-12-14T13:11:55;8.36;76.72
82788;DHT22;72529;51.786;4.662;2023-12-14T13:14:21;8.36;76.86
82788;DHT22;72529;51.786;4.662;2023-12-14T13:16:46;8.36;77.02
82788;DHT22;72529;51.786;4.662;2023-12-14T13:19:13;8.32;76.71
82788;DHT22;72529;51.786;4.662;2023-12-14T13:21:39;8.32;76.78
82788;DHT22;72529;51.786;4.662;2023-12-14T13:24:04;8.29;77.75
82788;DHT22;72529;51.786;4.662;2023-12-14T13:26:30;8.29;77.69
82788;DHT22;72529;51.786;4.662;2023-12-14T13:28:55;8.39;77.73
82788;DHT22;72529;51.786;4.662;2023-12-14T13:31:21;8.45;77.25
82788;DHT22;72529;51.786;4.662;2023-12-14T13:33:47;8.45;77.17
82788;DHT22;72529;51.786;4.662;2023-12-14T13:36:14;8.50;76.82
82788;DHT22;72529;51.786;4.662;2023-12-14T13:38:41;8.55;76.66
82788;DHT22;72529;51.786;4.662;2023-12-14T13:41:07;8.59;77.03
82788;DHT22;72529;51.786;4.662;2023-12-14T13:43:32;8.65;76.26
82788;DHT22;72529;51.786;4.662;2023-12-14T13:45:58;8.77;75.98
82788;DHT22;72529;51.786;4.662;2023-12-14T13:48:24;8.81;75.59
82788;DHT22;72529;51.786;4.662;2023-12-14T13:50:50;8.87;75.79
82788;DHT22;72529;51.786;4.662;2023-12-14T13:53:15;8.89;75.35
82788;DHT22;72529;51.786;4.662;2023-12-14T13:55:41;8.83;75.68
82788;DHT22;72529;51.786;4.662;2023-12-14T13:58:06;8.83;76.18
82788;DHT22;72529;51.786;4.662;2023-12-14T14:00:32;8.81;76.08
82788;DHT22;72529;51.786;4.662;2023-12-14T14:03:00;8.77;76.93
82788;DHT22;72529;51.786;4.662;2023-12-14T14:05:25;8.84;76.63
82788;DHT22;72529;51.786;4.662;2023-12-14T14:07:52;8.80;76.74
82788;DHT22;72529;51.786;4.662;2023-12-14T14:10:19;8.83;76.80
82788;DHT22;72529;51.786;4.662;2023-12-14T14:12:45;8.86;76.99
82788;DHT22;72529;51.786;4.662;2023-12-14T14:15:11;8.80;77.18
82788;DHT22;72529;51.786;4.662;2023-12-14T14:17:37;8.79;77.48
82788;DHT22;72529;51.786;4.662;2023-12-14T14:20:02;8.73;77.91
82788;DHT22;72529;51.786;4.662;2023-12-14T14:22:29;8.77;77.88
82788;DHT22;72529;51.786;4.662;2023-12-14T14:24:54;8.75;77.84
82788;DHT22;72529;51.786;4.662;2023-12-14T14:27:20;8.69;78.41
82788;DHT22;72529;51.786;4.662;2023-12-14T14:29:45;8.67;78.70
82788;DHT22;72529;51.786;4.662;2023-12-14T14:32:11;8.75;78.87
82788;DHT22;72529;51.786;4.662;2023-12-14T14:34:36;8.83;78.55
82788;DHT22;72529;51.786;4.662;2023-12-14T14:37:01;8.83;78.29
82788;DHT22;72529;51.786;4.662;2023-12-14T14:39:27;8.80;78.55
82788;DHT22;72529;51.786;4.662;2023-12-14T14:41:52;8.80;78.92
82788;DHT22;72529;51.786;4.662;2023-12-14T14:44:18;8.80;78.83
82788;DHT22;72529;51.786;4.662;2023-12-14T14:46:43;8.83;79.08
82788;DHT22;72529;51.786;4.662;2023-12-14T14:49:09;8.87;78.63
82788;DHT22;72529;51.786;4.662;2023-12-14T14:51:34;8.83;78.98
82788;DHT22;72529;51.786;4.662;2023-12-14T14:54:00;8.86;78.98
82788;DHT22;72529;51.786;4.662;2023-12-14T14:56:26;8.86;79.04
82788;DHT22;72529;51.786;4.662;2023-12-14T14:58:51;8.84;78.98
82788;DHT22;72529;51.786;4.662;2023-12-14T15:01:18;8.86;79.19
82788;DHT22;72529;51.786;4.662;2023-12-14T15:03:44;8.86;79.34
82788;DHT22;72529;51.786;4.662;2023-12-14T15:06:10;8.86;79.25
82788;DHT22;72529;51.786;4.662;2023-12-14T15:08:36;8.93;79.27
82788;DHT22;72529;51.786;4.662;2023-12-14T15:11:01;8.96;79.09
82788;DHT22;72529;51.786;4.662;2023-12-14T15:13:28;8.93;78.98
82788;DHT22;72529;51.786;4.662;2023-12-14T15:15:54;8.90;79.26
82788;DHT22;72529;51.786;4.662;2023-12-14T15:18:21;8.94;79.37
82788;DHT22;72529;51.786;4.662;2023-12-14T15:20:46;8.94;79.26
82788;DHT22;72529;51.786;4.662;2023-12-14T15:23:14;8.91;79.37
82788;DHT22;72529;51.786;4.662;2023-12-14T15:25:39;8.93;79.51
82788;DHT22;72529;51.786;4.662;2023-12-14T15:28:05;8.96;79.35
82788;DHT22;72529;51.786;4.662;2023-12-14T15:30:31;9.00;79.12
82788;DHT22;72529;51.786;4.662;2023-12-14T15:32:56;9.00;79.07
82788;DHT22;72529;51.786;4.662;2023-12-14T15:35:22;8.96;79.15
82788;DHT22;72529;51.786;4.662;2023-12-14T15:37:47;8.97;79.35
82788;DHT22;72529;51.786;4.662;2023-12-14T15:40:12;8.93;79.31
82788;DHT22;72529;51.786;4.662;2023-12-14T15:42:38;8.86;79.79
82788;DHT22;72529;51.786;4.662;2023-12-14T15:45:03;8.86;79.79